Montreal / St-Lazare Airport

CST3 · Quebec, Canada

October 2, 2022

Time Code Weather Temp. Visibility Ceiling Wind METAR/SPECI
07:00
V
4 °C 15 mi 25,000 ft 020° 020° 15 - 22 kt METAR CYUL 021100Z 02015G22KT 15SM BKN250 04/M01 A3037 RMK CI6 SLP289
06:00
V
4 °C 15 mi - 030° 030° 14 kt METAR CYUL 021000Z 03014KT 15SM FEW250 04/M01 A3036 RMK CI2 SLP285
05:00
V
5 °C 15 mi - 020° 020° 15 kt METAR CYUL 020900Z 02015KT 15SM FEW250 05/M01 A3034 RMK CI2 SLP277
04:00
V
6 °C 15 mi - 020° 020° 16 - 22 kt METAR CYUL 020800Z 02016G22KT 15SM FEW250 06/M01 A3033 RMK CI1 SLP272
03:00
V
7 °C 15 mi - 020° 020° 21 kt METAR CYUL 020700Z 02021KT 15SM FEW250 07/M00 A3032 RMK CI1 SLP270
02:00
V
7 °C 15 mi - 030° 030° 16 - 26 kt METAR CYUL 020600Z 03016G26KT 15SM FEW250 07/01 A3032 RMK CI2 SLP268
01:00
V
8 °C 15 mi - 030° 030° 18 - 25 kt METAR CYUL 020500Z 03018G25KT 15SM FEW250 08/01 A3031 RMK CI2 SLP265
00:00
V
9 °C 15 mi - 030° 030° 13 - 20 kt METAR CYUL 020400Z 03013G20KT 15SM FEW250 09/02 A3030 RMK CI2 SLP263

October 1, 2022

Time Code Weather Temp. Visibility Ceiling Wind METAR/SPECI
23:00
V
10 °C 15 mi - 030° 030° 15 - 22 kt METAR CYUL 020300Z 03015G22KT 15SM FEW250 10/03 A3028 RMK CI2 SLP256
22:00
V
11 °C 15 mi - 030° 030° 13 kt METAR CYUL 020200Z 03013KT 15SM FEW040 FEW250 11/04 A3026 RMK SC1CI1 SC TR SLP250
21:00
V
12 °C 15 mi - 040° 040° 9 kt METAR CYUL 020100Z 04009KT 15SM FEW045 FEW250 12/07 A3025 RMK SC1CI1 SC TR SLP246
20:00
V
12 °C 15 mi 24,000 ft 040° 040° 7 kt METAR CYUL 020000Z 04007KT 15SM FEW035 SCT044 SCT100 BKN240 12/08 A3023 RMK SC1SC2AC1CI2 AC TR SLP240
19:00
V
14 °C 15 mi 25,000 ft 070° 070° 11 - 16 kt METAR CYUL 012300Z 07011G16KT 15SM FEW035 SCT045 SCT110 BKN250 14/09 A3021 RMK SC2SC1AC1CI2 AC TR SLP233
18:00
V
16 °C 15 mi 4,200 ft 050° 050° 9 kt METAR CYUL 012200Z 05009KT 15SM SCT030 BKN042 BKN100 BKN240 16/10 A3019 RMK SC3SC2AC1CS1 SLP225
17:00
V
16 °C 15 mi 24,000 ft 030° 030° 10 kt METAR CYUL 012100Z 03010KT 15SM FEW110 FEW160 BKN240 16/09 A3017 RMK AC1AC1CS6 AC TR SLP219
16:00
V
17 °C 30 mi 24,000 ft 030° 030° 9 kt METAR CYUL 012000Z 03009KT 30SM FEW130 FEW180 BKN240 17/09 A3016 RMK AC1AC2CS5 AC TR SLP214
15:00
V
17 °C 30 mi 25,000 ft 010° 010° 9 kt METAR CYUL 011900Z 01009KT 30SM FEW100 FEW170 BKN250 17/09 A3015 RMK AC1AC1CS6 AC TR SLP213
14:00
V
17 °C 30 mi 25,000 ft Var Var 2 kt METAR CYUL 011800Z VRB02KT 30SM FEW080 FEW180 BKN250 17/07 A3016 RMK AC1AC1CS6 AC TR SLP216
13:00
V
16 °C 60 mi 24,000 ft 010° 010° 5 kt METAR CYUL 011700Z 01005KT 360V080 60SM FEW100 FEW180 BKN240 16/08 A3018 RMK AC1AC2CS5 AC TR SLP222
12:00
V
15 °C 30 mi 24,000 ft 030° 030° 3 kt METAR CYUL 011600Z 03003KT 30SM FEW110 FEW180 OVC240 15/09 A3018 RMK AC1AC2CS6 AC TR SLP221
11:00
V
13 °C 30 mi 24,000 ft 130° 130° 3 kt METAR CYUL 011500Z 13003KT 040V210 30SM FEW100 FEW170 BKN240 13/09 A3019 RMK AC1AC1CS6 AC TR SLP227
10:00
V
11 °C 15 mi 25,000 ft Var 000° 0 kt METAR CYUL 011400Z 00000KT 15SM FEW140 FEW180 SCT210 OVC250 11/09 A3019 RMK AC1AC2CS2CS4 AC TR SLP225
09:00
V
10 °C 15 mi 25,000 ft Var Var 2 kt METAR CYUL 011300Z VRB02KT 15SM OVC250 10/08 A3019 RMK CS8 SLP225
08:00
V
9 °C 15 mi 25,000 ft 240° 240° 3 kt METAR CYUL 011200Z 24003KT 15SM BKN250 09/08 A3018 RMK CI7 SLP223
07:00
V
9 °C 15 mi 25,000 ft 240° 240° 5 kt METAR CYUL 011100Z 24005KT 15SM BKN250 09/07 A3018 RMK CI7 SLP223
06:01
V
8 °C 15 mi - 240° 240° 5 kt METAR CYUL 011001Z 24005KT 15SM SCT250 08/07 A3017 RMK CI3 SLP218
06:00
V
8 °C 15 mi - 240° 240° 5 kt METAR CYUL 011000Z 24005KT 15SM SCT250 08/07 A3017 RMK CI3 SLP218
05:00
V
9 °C 15 mi - 220° 220° 3 kt METAR CYUL 010900Z 22003KT 15SM SCT250 09/07 A3014 RMK CI4 SLP210
04:00
V
9 °C 15 mi - 250° 250° 4 kt METAR CYUL 010800Z 25004KT 15SM SCT250 09/08 A3016 RMK CI4 SLP214
03:00
V
9 °C 15 mi - 250° 250° 6 kt METAR CYUL 010700Z 25006KT 15SM SCT250 09/07 A3016 RMK CI3 SLP217
02:00
V
10 °C 15 mi - 240° 240° 6 kt METAR CYUL 010600Z 24006KT 15SM SCT250 10/07 A3018 RMK CI4 SLP222
01:00
V
11 °C 15 mi 25,000 ft 230° 230° 5 kt METAR CYUL 010500Z 23005KT 15SM BKN250 11/06 A3018 RMK CI6 SLP223
00:00
V
11 °C 15 mi 25,000 ft 230° 230° 4 kt METAR CYUL 010400Z 23004KT 15SM BKN250 11/06 A3019 RMK CI5 SLP226

September 30, 2022

Time Code Weather Temp. Visibility Ceiling Wind METAR/SPECI
23:00
V
12 °C 15 mi 25,000 ft 220° 220° 6 kt METAR CYUL 010300Z 22006KT 15SM BKN250 12/06 A3019 RMK CI5 SLP227
22:00
V
12 °C 15 mi - 220° 220° 5 kt METAR CYUL 010200Z 22005KT 15SM FEW250 12/06 A3019 RMK CI1 CI TR SLP227
21:00
V
13 °C 15 mi 25,000 ft 250° 250° 4 kt METAR CYUL 010100Z 25004KT 15SM BKN250 13/05 A3020 RMK CI5 SLP229
20:00
V
13 °C 15 mi 25,000 ft 240° 240° 4 kt METAR CYUL 010000Z 24004KT 15SM BKN250 13/06 A3021 RMK CI6 SLP231
19:00
V
14 °C 15 mi 25,000 ft 240° 240° 5 kt METAR CYUL 302300Z 24005KT 15SM BKN250 14/05 A3021 RMK CI5 SLP233
18:00
V
15 °C 30 mi 25,000 ft 230° 230° 6 kt METAR CYUL 302200Z 23006KT 30SM BKN250 15/04 A3021 RMK CS6 CI ASOCTD SLP233
17:00
V
16 °C 30 mi 25,000 ft 200° 200° 9 kt METAR CYUL 302100Z 20009KT 30SM BKN250 16/03 A3023 RMK CI6 SLP238
16:00
V
17 °C 30 mi - 180° 180° 10 kt METAR CYUL 302000Z 18010KT 30SM SCT250 17/04 A3025 RMK CI4 SLP245
15:00
V
17 °C 30 mi - 190° 190° 10 kt METAR CYUL 301900Z 19010KT 170V230 30SM SCT250 17/06 A3026 RMK CI3 SLP251
14:00
V
16 °C 30 mi - 190° 190° 9 kt METAR CYUL 301800Z 19009KT 30SM FEW250 16/06 A3030 RMK CI2 SLP262
13:00
V
16 °C 30 mi - 210° 210° 9 kt METAR CYUL 301700Z 21009KT 160V230 30SM FEW240 16/06 A3033 RMK CI1 SLP272
12:00
V
15 °C 30 mi - 210° 210° 6 kt METAR CYUL 301600Z 21006KT 30SM FEW240 15/06 A3035 RMK CI1 CI TR SLP279
11:00
V
13 °C 30 mi - 270° 270° 7 kt METAR CYUL 301500Z 27007KT 230V310 30SM FEW200 13/05 A3037 RMK CI1 CI TR SLP287
10:00
V
12 °C 30 mi - 220° 220° 5 kt METAR CYUL 301400Z 22005KT 30SM FEW180 12/07 A3038 RMK AC1 AC TR SLP292
09:00
V
9 °C 30 mi - Var Var 2 kt METAR CYUL 301300Z VRB02KT 30SM FEW250 09/07 A3038 RMK CI1 CI TR SLP292
08:00
V
7 °C 30 mi - 350° 350° 3 kt METAR CYUL 301200Z 35003KT 30SM FEW250 07/05 A3038 RMK CI1 CI TR SLP292
Older data

We and third parties follow your internet behavior on our website with cookies. If you continue, we assume you agree with our cookie policy. Learn more